createdAt,value
2018-10-09T00:00:39.542Z,11.60
2018-10-09T00:03:06.894Z,11.60
2018-10-09T00:05:34.290Z,11.60
2018-10-09T00:08:01.678Z,11.60
2018-10-09T00:10:29.087Z,11.60
2018-10-09T00:12:56.513Z,11.50
2018-10-09T00:15:23.918Z,11.40
2018-10-09T00:17:51.305Z,11.40
2018-10-09T00:20:24.049Z,11.40
2018-10-09T00:22:52.380Z,11.30
2018-10-09T00:25:19.798Z,11.30
2018-10-09T00:27:47.195Z,11.30
2018-10-09T00:30:14.610Z,11.30
2018-10-09T00:32:42.042Z,11.20
2018-10-09T00:35:09.436Z,11.20
2018-10-09T00:37:36.830Z,11.20
2018-10-09T00:40:04.246Z,11.10
2018-10-09T00:42:31.654Z,11.00
2018-10-09T00:44:59.075Z,11.00
2018-10-09T00:47:26.486Z,10.90
2018-10-09T00:49:53.885Z,10.90
2018-10-09T00:52:21.306Z,10.90
2018-10-09T00:54:48.693Z,10.90
2018-10-09T00:57:16.078Z,10.80
2018-10-09T00:59:43.478Z,10.80
2018-10-09T01:02:10.878Z,10.70
2018-10-09T01:04:38.294Z,10.70
2018-10-09T01:07:05.690Z,10.60
2018-10-09T01:09:33.098Z,10.70
2018-10-09T01:12:00.529Z,10.60
2018-10-09T01:14:27.938Z,10.60
2018-10-09T01:16:55.329Z,10.60
2018-10-09T01:19:22.737Z,10.50
2018-10-09T01:21:50.150Z,10.50
2018-10-09T01:24:18.218Z,10.50
2018-10-09T01:26:46.305Z,10.50
2018-10-09T01:29:14.744Z,10.50
2018-10-09T01:31:42.814Z,10.50
2018-10-09T01:34:10.221Z,10.50
2018-10-09T01:36:37.614Z,10.60
2018-10-09T01:39:05.890Z,10.50
2018-10-09T01:41:33.984Z,10.40
2018-10-09T01:44:02.042Z,10.30
2018-10-09T01:46:30.135Z,10.30
2018-10-09T01:48:58.214Z,10.30
2018-10-09T01:51:26.318Z,10.30
2018-10-09T01:53:54.506Z,10.30
2018-10-09T01:56:22.561Z,10.30
2018-10-09T01:58:50.650Z,10.30
2018-10-09T02:01:18.726Z,10.30
2018-10-09T02:03:46.787Z,10.30
2018-10-09T02:06:14.898Z,10.40
2018-10-09T02:08:42.277Z,10.40
2018-10-09T02:11:09.689Z,10.40
2018-10-09T02:13:37.069Z,10.40
2018-10-09T02:16:04.499Z,10.40
2018-10-09T02:18:31.898Z,10.40
2018-10-09T02:20:59.337Z,10.40
2018-10-09T02:23:26.745Z,10.30
2018-10-09T02:25:54.182Z,10.30
2018-10-09T02:28:21.583Z,10.30
2018-10-09T02:30:48.989Z,10.20
2018-10-09T02:33:16.412Z,10.10
2018-10-09T02:35:43.801Z,10.10
2018-10-09T02:38:11.219Z,10.00
2018-10-09T02:40:38.625Z,10.00
2018-10-09T02:43:06.045Z,10.00
2018-10-09T02:45:33.462Z,9.90
2018-10-09T02:48:00.863Z,9.90
2018-10-09T02:50:28.290Z,9.80
2018-10-09T02:52:55.698Z,9.90
2018-10-09T02:55:23.098Z,9.80
2018-10-09T02:57:50.509Z,9.80
2018-10-09T03:00:17.917Z,9.80
2018-10-09T03:02:45.995Z,9.80
2018-10-09T03:05:14.069Z,9.80
2018-10-09T03:07:42.118Z,9.80
2018-10-09T03:10:10.198Z,9.80
2018-10-09T03:12:38.286Z,9.80
2018-10-09T03:15:06.506Z,9.70
2018-10-09T03:17:34.580Z,9.80
2018-10-09T03:20:02.666Z,9.70
2018-10-09T03:22:30.718Z,9.70
2018-10-09T03:24:58.790Z,9.70
2018-10-09T03:27:26.874Z,9.70
2018-10-09T03:29:55.098Z,9.70
2018-10-09T03:32:23.159Z,9.80
2018-10-09T03:34:51.237Z,9.70
2018-10-09T03:37:19.299Z,9.70
2018-10-09T03:39:47.366Z,9.70
2018-10-09T03:42:15.443Z,9.70
2018-10-09T03:44:43.532Z,9.60
2018-10-09T03:47:11.606Z,9.70
2018-10-09T03:49:39.682Z,9.60
2018-10-09T03:52:07.755Z,9.60
2018-10-09T03:54:35.855Z,9.50
2018-10-09T03:57:03.924Z,9.60
2018-10-09T03:59:31.998Z,9.50
2018-10-09T04:02:00.050Z,9.50
2018-10-09T04:04:28.146Z,9.40
2018-10-09T04:06:56.210Z,9.50
2018-10-09T04:09:24.306Z,9.50
2018-10-09T04:11:52.386Z,9.50
2018-10-09T04:14:20.454Z,9.50
2018-10-09T04:16:48.530Z,9.50
2018-10-09T04:19:16.672Z,9.50
2018-10-09T04:21:44.686Z,9.50
2018-10-09T04:24:12.774Z,9.50
2018-10-09T04:26:41.027Z,9.60
2018-10-09T04:29:09.092Z,9.60
2018-10-09T04:31:37.174Z,9.60
2018-10-09T04:34:05.542Z,9.70
2018-10-09T04:36:32.963Z,9.80
2018-10-09T04:39:00.374Z,9.90
2018-10-09T04:41:27.779Z,10.10
2018-10-09T04:43:55.851Z,10.20
2018-10-09T04:46:23.267Z,10.50
2018-10-09T04:48:50.661Z,10.70
2018-10-09T04:51:18.045Z,10.80
2018-10-09T04:56:12.729Z,10.90
2018-10-09T04:58:40.106Z,11.00
2018-10-09T05:01:07.545Z,11.00
2018-10-09T05:03:34.938Z,11.10
2018-10-09T05:06:02.366Z,11.10
2018-10-09T05:08:29.778Z,11.00
2018-10-09T05:10:57.173Z,10.90
2018-10-09T05:13:24.721Z,10.90
2018-10-09T05:15:52.150Z,11.00
2018-10-09T05:18:19.529Z,11.10
2018-10-09T05:20:46.926Z,11.10
2018-10-09T05:23:14.367Z,11.00
2018-10-09T05:25:41.733Z,11.00
2018-10-09T05:28:09.381Z,11.00
2018-10-09T05:30:36.777Z,10.90
2018-10-09T05:33:04.173Z,10.90
2018-10-09T05:35:31.570Z,10.90
2018-10-09T05:37:58.982Z,10.80
2018-10-09T05:40:26.365Z,10.80
2018-10-09T05:42:53.773Z,10.80
2018-10-09T05:45:21.183Z,10.80
2018-10-09T05:47:48.601Z,10.80
2018-10-09T05:50:16.004Z,10.90
2018-10-09T05:52:43.471Z,10.90
2018-10-09T05:55:10.806Z,10.90
2018-10-09T05:57:38.229Z,10.90
2018-10-09T06:00:06.133Z,10.90
2018-10-09T06:02:33.617Z,10.80
2018-10-09T06:05:01.009Z,10.90
2018-10-09T06:07:28.421Z,10.90
2018-10-09T06:09:55.802Z,10.90
2018-10-09T06:12:23.206Z,10.90
2018-10-09T06:14:50.586Z,11.00
2018-10-09T06:17:17.977Z,11.00
2018-10-09T06:19:45.390Z,11.00
2018-10-09T06:22:12.871Z,11.00
2018-10-09T06:24:40.310Z,11.10
2018-10-09T06:27:07.721Z,11.10
2018-10-09T06:29:35.110Z,11.20
2018-10-09T06:32:02.518Z,11.30
2018-10-09T06:34:29.902Z,11.30
2018-10-09T06:36:57.321Z,11.40
2018-10-09T06:39:24.718Z,11.40
2018-10-09T06:41:52.113Z,11.50
2018-10-09T06:44:19.618Z,11.60
2018-10-09T06:46:46.966Z,11.50
2018-10-09T06:49:14.357Z,11.60
2018-10-09T06:51:41.741Z,11.70
2018-10-09T06:54:09.210Z,11.60
2018-10-09T06:56:36.541Z,11.70
2018-10-09T06:59:03.934Z,11.80
2018-10-09T07:01:31.328Z,11.90
2018-10-09T07:03:58.724Z,11.90
2018-10-09T07:06:26.149Z,12.00
2018-10-09T07:08:53.507Z,12.10
2018-10-09T07:11:21.050Z,12.00
2018-10-09T07:13:48.300Z,12.00
2018-10-09T07:16:15.705Z,12.00
2018-10-09T07:18:43.102Z,12.00
2018-10-09T07:21:10.518Z,11.90
2018-10-09T07:23:37.901Z,11.80
2018-10-09T07:26:05.356Z,11.60
2018-10-09T07:28:32.754Z,11.60
2018-10-09T07:31:00.155Z,11.60
2018-10-09T07:33:27.545Z,11.60
2018-10-09T07:35:54.950Z,11.60
2018-10-09T07:38:22.381Z,11.70
2018-10-09T07:40:49.799Z,11.70
2018-10-09T07:43:17.190Z,11.70
2018-10-09T07:45:45.506Z,11.70
2018-10-09T07:48:12.906Z,11.80
2018-10-09T07:50:40.306Z,11.80
2018-10-09T07:53:07.709Z,11.80
2018-10-09T07:55:35.103Z,11.80
2018-10-09T07:58:02.510Z,11.90
2018-10-09T08:00:29.900Z,11.90
2018-10-09T08:02:57.334Z,11.90
2018-10-09T08:05:24.742Z,12.00
2018-10-09T08:07:52.133Z,12.10
2018-10-09T08:10:19.554Z,12.20
2018-10-09T08:12:47.593Z,12.30
2018-10-09T08:15:14.990Z,12.40
2018-10-09T08:17:42.390Z,12.60
2018-10-09T08:20:09.824Z,12.80
2018-10-09T08:22:37.274Z,12.90
2018-10-09T08:25:04.667Z,13.00
2018-10-09T08:27:32.747Z,13.10
2018-10-09T08:30:00.839Z,13.20
2018-10-09T08:32:28.955Z,13.30
2018-10-09T08:34:57.041Z,13.50
2018-10-09T08:37:24.429Z,13.60
2018-10-09T08:39:52.495Z,13.70
2018-10-09T08:42:20.576Z,13.90
2018-10-09T08:44:47.982Z,14.00
2018-10-09T08:47:16.030Z,14.10
2018-10-09T08:49:44.110Z,14.20
2018-10-09T08:52:12.182Z,14.30
2018-10-09T08:54:40.237Z,14.30
2018-10-09T08:57:08.331Z,14.40
2018-10-09T08:59:36.410Z,14.50
2018-10-09T09:02:03.798Z,14.50
2018-10-09T09:04:31.852Z,14.50
2018-10-09T09:06:59.318Z,14.50
2018-10-09T09:09:26.746Z,14.60
2018-10-09T09:11:54.774Z,14.70
2018-10-09T09:14:22.197Z,14.80
2018-10-09T09:16:50.298Z,14.90
2018-10-09T09:19:18.323Z,14.90
2018-10-09T09:21:45.706Z,15.00
2018-10-09T09:24:13.108Z,15.10
2018-10-09T09:26:40.558Z,15.10
2018-10-09T09:29:07.916Z,15.20
2018-10-09T09:31:35.314Z,15.30
2018-10-09T09:34:02.721Z,15.60
2018-10-09T09:36:30.101Z,15.70
2018-10-09T09:38:58.172Z,15.90
2018-10-09T09:41:26.226Z,16.10
2018-10-09T09:43:54.275Z,16.20
2018-10-09T09:46:21.745Z,16.30
2018-10-09T09:48:49.074Z,16.30
2018-10-09T09:51:17.155Z,16.30
2018-10-09T09:53:44.558Z,16.30
2018-10-09T09:56:11.958Z,16.40
2018-10-09T09:58:39.586Z,16.40
2018-10-09T10:01:08.338Z,16.70
2018-10-09T10:03:36.081Z,16.80
2018-10-09T10:06:03.454Z,16.80
2018-10-09T10:08:30.845Z,16.80
2018-10-09T10:10:58.902Z,17.00
2018-10-09T10:13:26.310Z,17.20
2018-10-09T10:15:53.757Z,17.40
2018-10-09T10:18:21.254Z,17.60
2018-10-09T10:20:48.659Z,17.70
2018-10-09T10:23:16.273Z,17.90
2018-10-09T10:25:43.654Z,18.00
2018-10-09T10:28:11.082Z,18.00
2018-10-09T10:30:38.457Z,18.10
2018-10-09T10:33:05.883Z,18.20
2018-10-09T10:35:33.284Z,18.40
2018-10-09T10:38:00.676Z,18.40
2018-10-09T10:40:28.071Z,18.60
2018-10-09T10:42:55.450Z,18.80
2018-10-09T10:45:22.874Z,19.00
2018-10-09T10:47:50.249Z,19.20
2018-10-09T10:50:17.630Z,19.50
2018-10-09T10:52:45.054Z,19.80
2018-10-09T10:55:12.450Z,20.10
2018-10-09T10:57:39.866Z,20.50
2018-10-09T11:00:07.294Z,20.90
2018-10-09T11:02:35.554Z,21.00
2018-10-09T11:05:03.625Z,21.40
2018-10-09T11:07:31.918Z,21.30
2018-10-09T11:09:59.366Z,21.60
2018-10-09T11:12:27.447Z,21.80
2018-10-09T11:14:54.837Z,22.20
2018-10-09T11:17:22.310Z,22.60
2018-10-09T11:19:49.745Z,22.90
2018-10-09T11:22:17.155Z,23.00
2018-10-09T11:24:45.239Z,22.90
2018-10-09T11:27:12.638Z,22.90
2018-10-09T11:29:40.027Z,23.20
2018-10-09T11:32:07.456Z,23.40
2018-10-09T11:34:35.107Z,23.50
2018-10-09T11:37:02.517Z,23.40
2018-10-09T11:39:29.916Z,23.30
2018-10-09T11:41:57.306Z,23.50
2018-10-09T11:44:25.388Z,24.00
2018-10-09T11:46:52.786Z,24.40
2018-10-09T11:49:20.193Z,24.90
2018-10-09T18:07:52.671Z,16.10
2018-10-09T18:10:20.715Z,16.00
2018-10-09T18:12:48.751Z,15.90
2018-10-09T18:15:16.814Z,15.80
2018-10-09T18:17:45.146Z,15.80
2018-10-09T18:20:13.218Z,15.70
2018-10-09T18:22:41.277Z,15.70
2018-10-09T18:25:09.024Z,15.60
2018-10-09T18:27:37.115Z,15.50
2018-10-09T18:30:04.634Z,15.50
2018-10-09T18:32:32.260Z,15.40
2018-10-09T18:34:59.573Z,15.40
2018-10-09T18:37:26.965Z,15.30
2018-10-09T18:39:54.362Z,15.30
2018-10-09T18:42:21.832Z,15.20
2018-10-09T18:44:49.154Z,15.10
2018-10-09T18:47:22.668Z,15.10
2018-10-09T18:49:50.711Z,15.00
2018-10-09T18:52:18.771Z,15.00
2018-10-09T18:54:46.198Z,14.90
2018-10-09T18:57:13.565Z,14.90
2018-10-09T18:59:40.960Z,14.80
2018-10-09T19:02:08.351Z,14.80
2018-10-09T19:04:35.766Z,14.80
2018-10-09T19:07:03.125Z,14.70
2018-10-09T19:09:30.520Z,14.60
2018-10-09T19:11:57.927Z,14.60
2018-10-09T19:14:25.346Z,14.60
2018-10-09T19:16:52.727Z,14.50
2018-10-09T19:19:20.141Z,14.50
2018-10-09T19:21:47.547Z,14.50
2018-10-09T19:24:14.977Z,14.50
2018-10-09T19:26:42.369Z,14.40
2018-10-09T19:29:09.758Z,14.40
2018-10-09T19:31:37.150Z,14.40
2018-10-09T19:34:04.577Z,14.40
2018-10-09T19:36:31.946Z,14.30
2018-10-09T19:38:59.332Z,14.30
2018-10-09T19:41:26.733Z,14.20
2018-10-09T19:43:54.123Z,14.20
2018-10-09T19:46:21.497Z,14.10
2018-10-09T19:48:48.885Z,14.10
2018-10-09T19:51:16.395Z,14.00
2018-10-09T19:53:43.745Z,14.00
2018-10-09T19:56:11.146Z,14.00
2018-10-09T19:58:38.568Z,14.00
2018-10-09T20:01:06.095Z,14.00
2018-10-09T20:03:33.452Z,14.00
2018-10-09T20:06:00.813Z,14.00
2018-10-09T20:08:28.199Z,14.00
2018-10-09T20:10:55.582Z,14.00
2018-10-09T20:13:22.958Z,14.00
2018-10-09T20:15:50.354Z,14.00
2018-10-09T20:18:17.814Z,14.00
2018-10-09T20:20:45.303Z,13.90
2018-10-09T20:23:12.700Z,13.90
2018-10-09T20:25:40.178Z,13.90
2018-10-09T20:28:08.338Z,13.90
2018-10-09T20:30:35.758Z,13.90
2018-10-09T20:33:03.986Z,13.90
2018-10-09T20:35:32.069Z,13.80
2018-10-09T20:38:00.106Z,13.80
2018-10-09T20:40:27.482Z,13.80
2018-10-09T20:42:54.863Z,13.80
2018-10-09T20:45:22.286Z,13.70
2018-10-09T20:47:49.674Z,13.60
2018-10-09T20:50:17.057Z,13.60
2018-10-09T20:52:44.434Z,13.50
2018-10-09T20:55:11.913Z,13.50
2018-10-09T20:57:39.383Z,13.40
2018-10-09T21:00:06.824Z,13.40
2018-10-09T21:02:34.515Z,13.30
2018-10-09T21:05:01.966Z,13.30
2018-10-09T21:07:29.427Z,13.30
2018-10-09T21:09:56.791Z,13.30
2018-10-09T21:12:24.237Z,13.30
2018-10-09T21:14:51.686Z,13.20
2018-10-09T21:17:20.311Z,13.20
2018-10-09T21:19:47.723Z,13.20
2018-10-09T21:22:15.103Z,13.20
2018-10-09T21:24:42.977Z,13.10
2018-10-09T21:27:10.394Z,13.10
2018-10-09T21:29:37.949Z,13.10
2018-10-09T21:32:05.318Z,13.10
2018-10-09T21:34:32.789Z,13.10
2018-10-09T21:37:00.214Z,13.10
2018-10-09T21:39:27.558Z,13.10
2018-10-09T21:41:54.967Z,13.00
2018-10-09T21:44:22.365Z,13.00
2018-10-09T21:46:49.753Z,12.90
2018-10-09T21:49:17.139Z,12.90
2018-10-09T21:51:44.535Z,12.90
2018-10-09T21:54:11.929Z,12.90
2018-10-09T21:56:39.318Z,12.80
2018-10-09T21:59:06.718Z,12.80
2018-10-09T22:01:34.194Z,12.80
2018-10-09T22:04:01.575Z,12.80
2018-10-09T22:06:28.957Z,12.80
2018-10-09T22:08:56.342Z,12.70
2018-10-09T22:11:23.855Z,12.70
2018-10-09T22:13:51.253Z,12.70
2018-10-09T22:16:18.654Z,12.60
2018-10-09T22:18:46.046Z,12.50
2018-10-09T22:21:13.430Z,12.50
2018-10-09T22:23:40.812Z,12.40
2018-10-09T22:26:08.189Z,12.40
2018-10-09T22:28:35.608Z,12.30
2018-10-09T22:31:02.994Z,12.30
2018-10-09T22:33:30.386Z,12.30
2018-10-09T22:35:57.778Z,12.30
2018-10-09T22:38:25.209Z,12.30
2018-10-09T22:40:52.562Z,12.30
2018-10-09T22:43:19.959Z,12.30
2018-10-09T22:45:47.342Z,12.20
2018-10-09T22:48:14.738Z,12.20
2018-10-09T22:50:42.149Z,12.10
2018-10-09T22:53:09.830Z,12.10
2018-10-09T22:55:37.206Z,12.10
2018-10-09T22:58:04.588Z,12.00
2018-10-09T23:00:31.967Z,11.90
2018-10-09T23:02:59.358Z,11.90
2018-10-09T23:05:26.763Z,11.90
2018-10-09T23:07:54.170Z,11.90
2018-10-09T23:10:21.557Z,11.90
2018-10-09T23:12:48.934Z,11.90
2018-10-09T23:15:16.317Z,12.00
2018-10-09T23:17:43.857Z,12.00
2018-10-09T23:20:11.242Z,12.00
2018-10-09T23:22:38.690Z,12.00
2018-10-09T23:25:06.083Z,12.00
2018-10-09T23:27:33.462Z,11.90
2018-10-09T23:30:00.837Z,11.90
2018-10-09T23:32:28.233Z,11.90
2018-10-09T23:34:55.629Z,11.80
2018-10-09T23:37:23.027Z,11.80
2018-10-09T23:39:50.413Z,11.80
2018-10-09T23:42:17.809Z,11.90
2018-10-09T23:44:45.239Z,11.90
2018-10-09T23:47:12.618Z,11.90
2018-10-09T23:49:40.015Z,11.80
2018-10-09T23:52:07.389Z,11.80
2018-10-09T23:54:34.770Z,11.70
2018-10-09T23:57:02.158Z,11.60
2018-10-09T23:59:29.577Z,11.60
